sensor_id;sensor_type;location;lat;lon;timestamp;P1;durP1;ratioP1;P2;durP2;ratioP2
74995;SDS011;63545;51.690;5.202;2023-06-14T00:02:16;8.13;;;3.87;;
74995;SDS011;63545;51.690;5.202;2023-06-14T00:04:41;5.07;;;3.73;;
74995;SDS011;63545;51.690;5.202;2023-06-14T00:07:08;7.80;;;3.88;;
74995;SDS011;63545;51.690;5.202;2023-06-14T00:09:34;7.70;;;4.00;;
74995;SDS011;63545;51.690;5.202;2023-06-14T00:11:59;8.80;;;3.90;;
74995;SDS011;63545;51.690;5.202;2023-06-14T00:14:25;9.63;;;3.45;;
74995;SDS011;63545;51.690;5.202;2023-06-14T00:16:50;6.93;;;3.67;;
74995;SDS011;63545;51.690;5.202;2023-06-14T00:19:17;5.60;;;3.88;;
74995;SDS011;63545;51.690;5.202;2023-06-14T00:21:44;8.50;;;3.65;;
74995;SDS011;63545;51.690;5.202;2023-06-14T00:24:10;8.33;;;4.00;;
74995;SDS011;63545;51.690;5.202;2023-06-14T00:26:35;6.73;;;3.47;;
74995;SDS011;63545;51.690;5.202;2023-06-14T00:29:01;6.50;;;3.60;;
74995;SDS011;63545;51.690;5.202;2023-06-14T00:31:26;8.63;;;3.90;;
74995;SDS011;63545;51.690;5.202;2023-06-14T00:33:52;6.77;;;3.70;;
74995;SDS011;63545;51.690;5.202;2023-06-14T00:36:17;5.23;;;3.17;;
74995;SDS011;63545;51.690;5.202;2023-06-14T00:38:43;7.22;;;3.45;;
74995;SDS011;63545;51.690;5.202;2023-06-14T00:41:08;8.27;;;3.43;;
74995;SDS011;63545;51.690;5.202;2023-06-14T00:43:33;8.87;;;3.57;;
74995;SDS011;63545;51.690;5.202;2023-06-14T00:45:59;6.53;;;3.85;;
74995;SDS011;63545;51.690;5.202;2023-06-14T00:48:25;11.00;;;3.70;;
74995;SDS011;63545;51.690;5.202;2023-06-14T00:50:50;6.47;;;3.70;;
74995;SDS011;63545;51.690;5.202;2023-06-14T00:53:17;8.25;;;3.70;;
74995;SDS011;63545;51.690;5.202;2023-06-14T00:55:43;7.32;;;3.75;;
74995;SDS011;63545;51.690;5.202;2023-06-14T00:58:09;9.37;;;3.30;;
74995;SDS011;63545;51.690;5.202;2023-06-14T01:00:35;8.85;;;3.83;;
74995;SDS011;63545;51.690;5.202;2023-06-14T01:03:00;5.37;;;3.50;;
74995;SDS011;63545;51.690;5.202;2023-06-14T01:05:26;9.88;;;3.55;;
74995;SDS011;63545;51.690;5.202;2023-06-14T01:11:01;9.65;;;3.72;;
74995;SDS011;63545;51.690;5.202;2023-06-14T01:13:32;10.30;;;3.90;;
74995;SDS011;63545;51.690;5.202;2023-06-14T01:15:59;8.50;;;3.70;;
74995;SDS011;63545;51.690;5.202;2023-06-14T01:18:25;5.43;;;3.50;;
74995;SDS011;63545;51.690;5.202;2023-06-14T01:20:52;5.05;;;3.58;;
74995;SDS011;63545;51.690;5.202;2023-06-14T01:23:20;9.50;;;3.42;;
74995;SDS011;63545;51.690;5.202;2023-06-14T01:25:46;9.52;;;3.58;;
74995;SDS011;63545;51.690;5.202;2023-06-14T01:28:13;8.90;;;3.43;;
74995;SDS011;63545;51.690;5.202;2023-06-14T01:30:41;7.70;;;3.47;;
74995;SDS011;63545;51.690;5.202;2023-06-14T01:33:10;10.98;;;3.75;;
74995;SDS011;63545;51.690;5.202;2023-06-14T01:35:41;7.78;;;3.33;;
74995;SDS011;63545;51.690;5.202;2023-06-14T01:38:08;9.02;;;3.53;;
74995;SDS011;63545;51.690;5.202;2023-06-14T01:40:34;8.40;;;3.43;;
74995;SDS011;63545;51.690;5.202;2023-06-14T01:42:59;7.38;;;3.50;;
74995;SDS011;63545;51.690;5.202;2023-06-14T01:45:26;6.30;;;3.80;;
74995;SDS011;63545;51.690;5.202;2023-06-14T01:47:52;7.50;;;3.57;;
74995;SDS011;63545;51.690;5.202;2023-06-14T01:50:18;11.50;;;3.80;;
74995;SDS011;63545;51.690;5.202;2023-06-14T01:52:45;6.57;;;3.30;;
74995;SDS011;63545;51.690;5.202;2023-06-14T01:55:10;12.93;;;3.80;;
74995;SDS011;63545;51.690;5.202;2023-06-14T01:57:35;5.63;;;3.78;;
74995;SDS011;63545;51.690;5.202;2023-06-14T02:00:01;14.50;;;3.67;;
74995;SDS011;63545;51.690;5.202;2023-06-14T02:02:28;12.73;;;3.90;;
74995;SDS011;63545;51.690;5.202;2023-06-14T02:04:54;9.90;;;3.50;;
74995;SDS011;63545;51.690;5.202;2023-06-14T02:07:22;9.40;;;3.75;;
74995;SDS011;63545;51.690;5.202;2023-06-14T02:09:47;5.83;;;3.20;;
74995;SDS011;63545;51.690;5.202;2023-06-14T02:12:13;7.30;;;3.80;;
74995;SDS011;63545;51.690;5.202;2023-06-14T02:14:38;12.00;;;4.07;;
74995;SDS011;63545;51.690;5.202;2023-06-14T02:17:04;9.60;;;3.55;;
74995;SDS011;63545;51.690;5.202;2023-06-14T02:19:29;9.47;;;3.80;;
74995;SDS011;63545;51.690;5.202;2023-06-14T02:21:55;6.47;;;3.07;;
74995;SDS011;63545;51.690;5.202;2023-06-14T02:24:20;14.80;;;3.53;;
74995;SDS011;63545;51.690;5.202;2023-06-14T02:26:46;6.05;;;3.53;;
74995;SDS011;63545;51.690;5.202;2023-06-14T02:29:11;9.37;;;3.97;;
74995;SDS011;63545;51.690;5.202;2023-06-14T02:31:39;7.63;;;3.70;;
74995;SDS011;63545;51.690;5.202;2023-06-14T02:34:05;8.48;;;3.60;;
74995;SDS011;63545;51.690;5.202;2023-06-14T02:36:30;7.73;;;3.80;;
74995;SDS011;63545;51.690;5.202;2023-06-14T02:38:56;9.17;;;3.73;;
74995;SDS011;63545;51.690;5.202;2023-06-14T02:41:23;7.07;;;3.40;;
74995;SDS011;63545;51.690;5.202;2023-06-14T02:43:49;7.93;;;3.43;;
74995;SDS011;63545;51.690;5.202;2023-06-14T02:46:14;6.50;;;3.47;;
74995;SDS011;63545;51.690;5.202;2023-06-14T02:48:40;10.60;;;4.03;;
74995;SDS011;63545;51.690;5.202;2023-06-14T02:51:05;6.03;;;3.43;;
74995;SDS011;63545;51.690;5.202;2023-06-14T02:53:31;10.93;;;4.07;;
74995;SDS011;63545;51.690;5.202;2023-06-14T02:55:56;12.57;;;3.58;;
74995;SDS011;63545;51.690;5.202;2023-06-14T02:58:21;10.60;;;3.40;;
74995;SDS011;63545;51.690;5.202;2023-06-14T03:00:49;12.50;;;3.73;;
74995;SDS011;63545;51.690;5.202;2023-06-14T03:03:17;8.63;;;3.70;;
74995;SDS011;63545;51.690;5.202;2023-06-14T03:05:44;6.47;;;3.95;;
74995;SDS011;63545;51.690;5.202;2023-06-14T03:08:14;6.22;;;3.53;;
74995;SDS011;63545;51.690;5.202;2023-06-14T03:10:47;5.63;;;3.60;;
74995;SDS011;63545;51.690;5.202;2023-06-14T03:13:13;10.77;;;3.58;;
74995;SDS011;63545;51.690;5.202;2023-06-14T03:15:39;11.27;;;3.97;;
74995;SDS011;63545;51.690;5.202;2023-06-14T03:18:07;12.23;;;3.72;;
74995;SDS011;63545;51.690;5.202;2023-06-14T03:20:36;8.30;;;3.47;;
74995;SDS011;63545;51.690;5.202;2023-06-14T03:23:02;9.82;;;4.13;;
74995;SDS011;63545;51.690;5.202;2023-06-14T03:25:28;13.68;;;3.97;;
74995;SDS011;63545;51.690;5.202;2023-06-14T03:27:59;5.83;;;3.40;;
74995;SDS011;63545;51.690;5.202;2023-06-14T03:30:24;7.55;;;3.63;;
74995;SDS011;63545;51.690;5.202;2023-06-14T03:32:50;8.07;;;3.80;;
74995;SDS011;63545;51.690;5.202;2023-06-14T03:35:20;6.47;;;3.50;;
74995;SDS011;63545;51.690;5.202;2023-06-14T03:37:46;8.38;;;3.60;;
74995;SDS011;63545;51.690;5.202;2023-06-14T03:40:12;9.30;;;3.77;;
74995;SDS011;63545;51.690;5.202;2023-06-14T03:42:38;7.90;;;3.80;;
74995;SDS011;63545;51.690;5.202;2023-06-14T03:45:04;5.75;;;3.60;;
74995;SDS011;63545;51.690;5.202;2023-06-14T03:47:30;6.18;;;3.72;;
74995;SDS011;63545;51.690;5.202;2023-06-14T03:49:56;9.87;;;3.93;;
74995;SDS011;63545;51.690;5.202;2023-06-14T03:52:21;7.10;;;3.67;;
74995;SDS011;63545;51.690;5.202;2023-06-14T03:54:48;6.72;;;3.72;;
74995;SDS011;63545;51.690;5.202;2023-06-14T03:57:13;9.30;;;3.53;;
74995;SDS011;63545;51.690;5.202;2023-06-14T03:59:39;8.13;;;3.40;;
74995;SDS011;63545;51.690;5.202;2023-06-14T04:02:04;8.00;;;3.47;;
74995;SDS011;63545;51.690;5.202;2023-06-14T04:04:30;8.10;;;3.78;;
74995;SDS011;63545;51.690;5.202;2023-06-14T04:06:55;6.83;;;3.43;;
74995;SDS011;63545;51.690;5.202;2023-06-14T04:09:25;9.25;;;3.72;;
74995;SDS011;63545;51.690;5.202;2023-06-14T04:11:51;12.85;;;3.90;;
74995;SDS011;63545;51.690;5.202;2023-06-14T04:14:18;7.13;;;3.63;;
74995;SDS011;63545;51.690;5.202;2023-06-14T04:16:44;14.82;;;3.60;;
74995;SDS011;63545;51.690;5.202;2023-06-14T04:19:11;5.35;;;3.53;;
74995;SDS011;63545;51.690;5.202;2023-06-14T04:21:36;6.43;;;3.43;;
74995;SDS011;63545;51.690;5.202;2023-06-14T04:24:01;11.20;;;3.43;;
74995;SDS011;63545;51.690;5.202;2023-06-14T04:26:27;14.55;;;3.95;;
74995;SDS011;63545;51.690;5.202;2023-06-14T04:28:58;7.70;;;3.60;;
74995;SDS011;63545;51.690;5.202;2023-06-14T04:31:27;10.63;;;3.67;;
74995;SDS011;63545;51.690;5.202;2023-06-14T04:33:54;7.90;;;3.70;;
74995;SDS011;63545;51.690;5.202;2023-06-14T04:36:19;8.27;;;3.60;;
74995;SDS011;63545;51.690;5.202;2023-06-14T04:38:45;11.60;;;3.55;;
74995;SDS011;63545;51.690;5.202;2023-06-14T04:41:11;9.15;;;3.22;;
74995;SDS011;63545;51.690;5.202;2023-06-14T04:43:37;8.40;;;3.77;;
74995;SDS011;63545;51.690;5.202;2023-06-14T04:46:05;7.53;;;3.38;;
74995;SDS011;63545;51.690;5.202;2023-06-14T04:48:35;8.20;;;3.72;;
74995;SDS011;63545;51.690;5.202;2023-06-14T04:51:02;5.17;;;3.50;;
74995;SDS011;63545;51.690;5.202;2023-06-14T04:53:29;8.60;;;3.83;;
74995;SDS011;63545;51.690;5.202;2023-06-14T04:55:54;6.73;;;3.57;;
74995;SDS011;63545;51.690;5.202;2023-06-14T04:58:19;7.90;;;3.97;;
74995;SDS011;63545;51.690;5.202;2023-06-14T05:00:45;6.30;;;3.40;;
74995;SDS011;63545;51.690;5.202;2023-06-14T05:03:10;9.47;;;3.40;;
74995;SDS011;63545;51.690;5.202;2023-06-14T05:05:38;8.98;;;3.97;;
74995;SDS011;63545;51.690;5.202;2023-06-14T05:08:04;5.32;;;3.35;;
74995;SDS011;63545;51.690;5.202;2023-06-14T05:10:30;8.87;;;3.77;;
74995;SDS011;63545;51.690;5.202;2023-06-14T05:12:56;6.53;;;3.38;;
74995;SDS011;63545;51.690;5.202;2023-06-14T05:15:21;9.90;;;3.40;;
74995;SDS011;63545;51.690;5.202;2023-06-14T05:17:50;7.53;;;3.53;;
74995;SDS011;63545;51.690;5.202;2023-06-14T05:20:20;9.20;;;3.70;;
74995;SDS011;63545;51.690;5.202;2023-06-14T05:22:46;7.18;;;3.60;;
74995;SDS011;63545;51.690;5.202;2023-06-14T05:25:11;7.43;;;3.60;;
74995;SDS011;63545;51.690;5.202;2023-06-14T05:27:36;6.00;;;3.70;;
74995;SDS011;63545;51.690;5.202;2023-06-14T05:30:02;10.23;;;3.83;;
74995;SDS011;63545;51.690;5.202;2023-06-14T05:32:28;10.27;;;3.67;;
74995;SDS011;63545;51.690;5.202;2023-06-14T05:34:54;7.60;;;3.67;;
74995;SDS011;63545;51.690;5.202;2023-06-14T05:37:19;11.90;;;3.63;;
74995;SDS011;63545;51.690;5.202;2023-06-14T05:39:44;9.93;;;3.67;;
74995;SDS011;63545;51.690;5.202;2023-06-14T05:42:10;12.33;;;3.63;;
74995;SDS011;63545;51.690;5.202;2023-06-14T05:44:36;9.48;;;3.45;;
74995;SDS011;63545;51.690;5.202;2023-06-14T05:47:01;14.00;;;3.80;;
74995;SDS011;63545;51.690;5.202;2023-06-14T05:49:26;6.93;;;3.67;;
74995;SDS011;63545;51.690;5.202;2023-06-14T05:51:52;8.50;;;3.60;;
74995;SDS011;63545;51.690;5.202;2023-06-14T05:54:17;10.27;;;3.97;;
74995;SDS011;63545;51.690;5.202;2023-06-14T05:56:42;7.07;;;4.17;;
74995;SDS011;63545;51.690;5.202;2023-06-14T05:59:08;9.67;;;4.50;;
74995;SDS011;63545;51.690;5.202;2023-06-14T06:01:33;11.03;;;4.10;;
74995;SDS011;63545;51.690;5.202;2023-06-14T06:04:01;9.45;;;3.85;;
74995;SDS011;63545;51.690;5.202;2023-06-14T06:06:27;6.20;;;4.17;;
74995;SDS011;63545;51.690;5.202;2023-06-14T06:08:52;13.20;;;4.20;;
74995;SDS011;63545;51.690;5.202;2023-06-14T06:11:17;9.13;;;4.40;;
74995;SDS011;63545;51.690;5.202;2023-06-14T06:13:43;13.30;;;4.65;;
74995;SDS011;63545;51.690;5.202;2023-06-14T06:16:08;9.33;;;4.10;;
74995;SDS011;63545;51.690;5.202;2023-06-14T06:18:33;11.00;;;4.70;;
74995;SDS011;63545;51.690;5.202;2023-06-14T06:20:59;9.13;;;4.07;;
74995;SDS011;63545;51.690;5.202;2023-06-14T06:23:25;10.55;;;4.00;;
74995;SDS011;63545;51.690;5.202;2023-06-14T06:25:50;13.77;;;4.40;;
74995;SDS011;63545;51.690;5.202;2023-06-14T06:28:16;9.57;;;4.00;;
74995;SDS011;63545;51.690;5.202;2023-06-14T06:30:42;9.53;;;4.37;;
74995;SDS011;63545;51.690;5.202;2023-06-14T06:33:07;9.60;;;4.20;;
74995;SDS011;63545;51.690;5.202;2023-06-14T06:35:33;6.57;;;3.60;;
74995;SDS011;63545;51.690;5.202;2023-06-14T06:37:58;5.90;;;3.53;;
74995;SDS011;63545;51.690;5.202;2023-06-14T06:40:25;7.80;;;3.63;;
74995;SDS011;63545;51.690;5.202;2023-06-14T06:42:50;9.40;;;4.50;;
74995;SDS011;63545;51.690;5.202;2023-06-14T06:45:15;9.90;;;4.47;;
74995;SDS011;63545;51.690;5.202;2023-06-14T06:47:41;10.77;;;3.95;;
74995;SDS011;63545;51.690;5.202;2023-06-14T06:50:06;7.43;;;3.50;;
74995;SDS011;63545;51.690;5.202;2023-06-14T06:52:32;8.03;;;3.53;;
74995;SDS011;63545;51.690;5.202;2023-06-14T06:54:58;10.13;;;3.90;;
74995;SDS011;63545;51.690;5.202;2023-06-14T06:57:23;13.63;;;4.37;;
74995;SDS011;63545;51.690;5.202;2023-06-14T06:59:49;6.20;;;3.90;;
74995;SDS011;63545;51.690;5.202;2023-06-14T07:02:15;9.90;;;3.95;;
74995;SDS011;63545;51.690;5.202;2023-06-14T07:04:41;9.43;;;4.10;;
74995;SDS011;63545;51.690;5.202;2023-06-14T07:07:06;9.53;;;3.80;;
74995;SDS011;63545;51.690;5.202;2023-06-14T07:09:31;7.83;;;3.80;;
74995;SDS011;63545;51.690;5.202;2023-06-14T07:11:57;9.80;;;3.50;;
74995;SDS011;63545;51.690;5.202;2023-06-14T07:14:22;8.77;;;3.83;;
74995;SDS011;63545;51.690;5.202;2023-06-14T07:16:48;5.80;;;3.78;;
74995;SDS011;63545;51.690;5.202;2023-06-14T07:19:14;9.15;;;3.80;;
74995;SDS011;63545;51.690;5.202;2023-06-14T07:21:39;7.83;;;3.60;;
74995;SDS011;63545;51.690;5.202;2023-06-14T07:24:05;11.60;;;4.03;;
74995;SDS011;63545;51.690;5.202;2023-06-14T07:26:31;10.68;;;3.92;;
74995;SDS011;63545;51.690;5.202;2023-06-14T07:28:57;12.97;;;3.80;;
74995;SDS011;63545;51.690;5.202;2023-06-14T07:31:22;5.80;;;3.60;;
74995;SDS011;63545;51.690;5.202;2023-06-14T07:33:47;7.07;;;3.83;;
74995;SDS011;63545;51.690;5.202;2023-06-14T07:36:13;8.43;;;3.90;;
74995;SDS011;63545;51.690;5.202;2023-06-14T07:38:38;9.27;;;3.83;;
74995;SDS011;63545;51.690;5.202;2023-06-14T07:41:05;6.18;;;3.45;;
74995;SDS011;63545;51.690;5.202;2023-06-14T07:43:30;10.27;;;3.90;;
74995;SDS011;63545;51.690;5.202;2023-06-14T07:45:56;6.47;;;3.70;;
74995;SDS011;63545;51.690;5.202;2023-06-14T07:48:22;7.00;;;3.80;;
74995;SDS011;63545;51.690;5.202;2023-06-14T07:50:47;10.17;;;3.80;;
74995;SDS011;63545;51.690;5.202;2023-06-14T07:53:13;6.67;;;4.23;;
74995;SDS011;63545;51.690;5.202;2023-06-14T07:55:38;6.88;;;3.70;;
74995;SDS011;63545;51.690;5.202;2023-06-14T07:58:04;9.60;;;3.50;;
74995;SDS011;63545;51.690;5.202;2023-06-14T08:00:31;6.57;;;3.53;;
74995;SDS011;63545;51.690;5.202;2023-06-14T08:02:56;8.27;;;3.80;;
74995;SDS011;63545;51.690;5.202;2023-06-14T08:05:23;6.13;;;3.50;;
74995;SDS011;63545;51.690;5.202;2023-06-14T08:07:49;8.85;;;3.70;;
74995;SDS011;63545;51.690;5.202;2023-06-14T08:10:15;7.67;;;3.50;;
74995;SDS011;63545;51.690;5.202;2023-06-14T08:12:40;12.20;;;3.63;;
74995;SDS011;63545;51.690;5.202;2023-06-14T08:15:05;9.70;;;3.70;;
74995;SDS011;63545;51.690;5.202;2023-06-14T08:17:31;10.87;;;3.57;;
74995;SDS011;63545;51.690;5.202;2023-06-14T08:19:56;9.25;;;3.70;;
74995;SDS011;63545;51.690;5.202;2023-06-14T08:22:22;9.30;;;3.57;;
74995;SDS011;63545;51.690;5.202;2023-06-14T08:24:49;5.07;;;3.50;;
74995;SDS011;63545;51.690;5.202;2023-06-14T08:27:14;7.83;;;3.40;;
74995;SDS011;63545;51.690;5.202;2023-06-14T08:29:40;8.13;;;3.13;;
74995;SDS011;63545;51.690;5.202;2023-06-14T08:32:06;5.68;;;3.20;;
74995;SDS011;63545;51.690;5.202;2023-06-14T08:34:32;5.53;;;3.33;;
74995;SDS011;63545;51.690;5.202;2023-06-14T08:36:57;9.37;;;3.40;;
74995;SDS011;63545;51.690;5.202;2023-06-14T08:39:22;7.27;;;3.07;;
74995;SDS011;63545;51.690;5.202;2023-06-14T08:41:48;6.53;;;3.20;;
74995;SDS011;63545;51.690;5.202;2023-06-14T08:44:14;8.00;;;3.23;;
74995;SDS011;63545;51.690;5.202;2023-06-14T08:46:40;8.63;;;3.35;;
74995;SDS011;63545;51.690;5.202;2023-06-14T08:49:06;5.03;;;2.90;;
74995;SDS011;63545;51.690;5.202;2023-06-14T08:51:33;6.35;;;3.08;;
74995;SDS011;63545;51.690;5.202;2023-06-14T08:54:01;13.48;;;3.03;;
74995;SDS011;63545;51.690;5.202;2023-06-14T08:56:29;6.03;;;2.77;;
74995;SDS011;63545;51.690;5.202;2023-06-14T08:58:55;6.07;;;2.85;;
74995;SDS011;63545;51.690;5.202;2023-06-14T09:01:21;6.72;;;2.90;;
74995;SDS011;63545;51.690;5.202;2023-06-14T09:03:48;7.82;;;3.03;;
74995;SDS011;63545;51.690;5.202;2023-06-14T09:06:14;10.38;;;2.67;;
74995;SDS011;63545;51.690;5.202;2023-06-14T09:08:44;8.77;;;2.67;;
74995;SDS011;63545;51.690;5.202;2023-06-14T09:11:13;4.53;;;2.70;;
74995;SDS011;63545;51.690;5.202;2023-06-14T09:13:39;5.05;;;2.70;;
74995;SDS011;63545;51.690;5.202;2023-06-14T09:16:06;6.85;;;2.60;;
74995;SDS011;63545;51.690;5.202;2023-06-14T09:18:35;5.30;;;2.80;;
74995;SDS011;63545;51.690;5.202;2023-06-14T09:21:09;3.28;;;2.40;;
74995;SDS011;63545;51.690;5.202;2023-06-14T09:23:45;6.63;;;2.60;;
74995;SDS011;63545;51.690;5.202;2023-06-14T09:26:12;3.95;;;2.50;;
74995;SDS011;63545;51.690;5.202;2023-06-14T09:28:47;6.13;;;2.25;;
74995;SDS011;63545;51.690;5.202;2023-06-14T09:31:16;6.23;;;2.47;;
74995;SDS011;63545;51.690;5.202;2023-06-14T09:33:43;4.43;;;2.20;;
74995;SDS011;63545;51.690;5.202;2023-06-14T09:36:16;5.53;;;2.25;;
74995;SDS011;63545;51.690;5.202;2023-06-14T09:38:51;5.75;;;2.28;;
74995;SDS011;63545;51.690;5.202;2023-06-14T09:41:34;3.35;;;2.05;;
74995;SDS011;63545;51.690;5.202;2023-06-14T09:44:00;10.30;;;2.00;;
74995;SDS011;63545;51.690;5.202;2023-06-14T09:46:27;3.85;;;2.13;;
74995;SDS011;63545;51.690;5.202;2023-06-14T09:48:54;4.22;;;1.90;;
74995;SDS011;63545;51.690;5.202;2023-06-14T09:51:19;4.03;;;1.70;;
74995;SDS011;63545;51.690;5.202;2023-06-14T09:53:50;4.88;;;1.77;;
74995;SDS011;63545;51.690;5.202;2023-06-14T09:56:17;4.15;;;1.70;;
74995;SDS011;63545;51.690;5.202;2023-06-14T09:58:55;4.40;;;1.80;;
74995;SDS011;63545;51.690;5.202;2023-06-14T10:01:25;2.38;;;1.65;;
74995;SDS011;63545;51.690;5.202;2023-06-14T10:03:54;4.10;;;1.83;;
74995;SDS011;63545;51.690;5.202;2023-06-14T10:06:22;3.38;;;1.40;;
74995;SDS011;63545;51.690;5.202;2023-06-14T10:08:49;2.30;;;1.60;;
74995;SDS011;63545;51.690;5.202;2023-06-14T10:11:17;6.67;;;1.57;;
74995;SDS011;63545;51.690;5.202;2023-06-14T10:13:42;5.40;;;1.70;;
74995;SDS011;63545;51.690;5.202;2023-06-14T10:16:20;2.63;;;1.50;;
74995;SDS011;63545;51.690;5.202;2023-06-14T10:18:50;2.38;;;1.42;;
74995;SDS011;63545;51.690;5.202;2023-06-14T10:21:28;4.33;;;1.70;;
74995;SDS011;63545;51.690;5.202;2023-06-14T10:24:09;3.70;;;1.67;;
74995;SDS011;63545;51.690;5.202;2023-06-14T10:26:40;4.03;;;1.55;;
74995;SDS011;63545;51.690;5.202;2023-06-14T10:29:15;4.90;;;1.55;;
74995;SDS011;63545;51.690;5.202;2023-06-14T10:34:11;5.90;;;1.60;;
74995;SDS011;63545;51.690;5.202;2023-06-14T10:36:37;5.82;;;2.00;;
74995;SDS011;63545;51.690;5.202;2023-06-14T10:39:04;3.97;;;1.90;;
74995;SDS011;63545;51.690;5.202;2023-06-14T10:41:37;2.72;;;1.80;;
74995;SDS011;63545;51.690;5.202;2023-06-14T10:46:37;8.82;;;1.88;;
74995;SDS011;63545;51.690;5.202;2023-06-14T10:49:02;5.93;;;1.90;;
74995;SDS011;63545;51.690;5.202;2023-06-14T10:51:29;3.72;;;1.90;;
74995;SDS011;63545;51.690;5.202;2023-06-14T10:53:55;5.57;;;2.00;;
74995;SDS011;63545;51.690;5.202;2023-06-14T10:58:53;2.88;;;2.00;;
74995;SDS011;63545;51.690;5.202;2023-06-14T11:01:35;3.90;;;2.00;;
74995;SDS011;63545;51.690;5.202;2023-06-14T11:04:11;3.77;;;2.00;;
74995;SDS011;63545;51.690;5.202;2023-06-14T11:09:25;2.83;;;1.70;;
74995;SDS011;63545;51.690;5.202;2023-06-14T11:11:55;6.53;;;1.90;;
74995;SDS011;63545;51.690;5.202;2023-06-14T11:14:21;3.58;;;1.67;;
74995;SDS011;63545;51.690;5.202;2023-06-14T11:16:49;8.43;;;1.97;;
74995;SDS011;63545;51.690;5.202;2023-06-14T11:19:15;6.38;;;1.80;;
74995;SDS011;63545;51.690;5.202;2023-06-14T11:21:42;5.17;;;2.03;;
74995;SDS011;63545;51.690;5.202;2023-06-14T11:24:10;3.95;;;1.80;;
74995;SDS011;63545;51.690;5.202;2023-06-14T11:26:38;2.80;;;1.70;;
74995;SDS011;63545;51.690;5.202;2023-06-14T11:29:05;4.13;;;1.60;;
74995;SDS011;63545;51.690;5.202;2023-06-14T11:31:30;4.70;;;1.70;;
74995;SDS011;63545;51.690;5.202;2023-06-14T11:33:56;2.40;;;1.70;;
74995;SDS011;63545;51.690;5.202;2023-06-14T11:36:23;3.35;;;1.80;;
74995;SDS011;63545;51.690;5.202;2023-06-14T11:38:57;3.28;;;1.50;;
74995;SDS011;63545;51.690;5.202;2023-06-14T11:41:35;2.50;;;1.70;;
74995;SDS011;63545;51.690;5.202;2023-06-14T11:44:02;5.82;;;1.80;;
74995;SDS011;63545;51.690;5.202;2023-06-14T11:46:28;4.32;;;1.92;;
74995;SDS011;63545;51.690;5.202;2023-06-14T11:48:53;6.57;;;2.00;;
74995;SDS011;63545;51.690;5.202;2023-06-14T11:51:19;2.93;;;1.90;;
74995;SDS011;63545;51.690;5.202;2023-06-14T11:53:45;7.13;;;1.77;;
74995;SDS011;63545;51.690;5.202;2023-06-14T11:56:11;4.47;;;1.70;;
74995;SDS011;63545;51.690;5.202;2023-06-14T11:58:36;3.37;;;1.87;;
74995;SDS011;63545;51.690;5.202;2023-06-14T12:01:02;6.90;;;1.80;;
74995;SDS011;63545;51.690;5.202;2023-06-14T12:03:28;7.57;;;1.83;;
74995;SDS011;63545;51.690;5.202;2023-06-14T12:06:05;7.47;;;2.00;;
74995;SDS011;63545;51.690;5.202;2023-06-14T12:08:35;4.07;;;1.90;;
74995;SDS011;63545;51.690;5.202;2023-06-14T12:11:11;5.13;;;1.88;;
74995;SDS011;63545;51.690;5.202;2023-06-14T12:13:43;3.53;;;1.80;;
74995;SDS011;63545;51.690;5.202;2023-06-14T12:16:12;5.43;;;1.83;;
74995;SDS011;63545;51.690;5.202;2023-06-14T12:18:38;3.75;;;1.95;;
74995;SDS011;63545;51.690;5.202;2023-06-14T12:21:07;4.85;;;1.65;;
74995;SDS011;63545;51.690;5.202;2023-06-14T12:23:43;3.58;;;1.80;;
74995;SDS011;63545;51.690;5.202;2023-06-14T12:26:09;4.33;;;2.00;;
74995;SDS011;63545;51.690;5.202;2023-06-14T12:28:34;2.70;;;1.90;;
74995;SDS011;63545;51.690;5.202;2023-06-14T12:30:59;4.20;;;1.83;;
74995;SDS011;63545;51.690;5.202;2023-06-14T12:33:25;3.13;;;2.10;;
74995;SDS011;63545;51.690;5.202;2023-06-14T12:35:51;6.60;;;1.90;;
74995;SDS011;63545;51.690;5.202;2023-06-14T12:38:18;4.80;;;1.70;;
74995;SDS011;63545;51.690;5.202;2023-06-14T12:40:43;3.70;;;1.90;;
74995;SDS011;63545;51.690;5.202;2023-06-14T12:43:09;4.73;;;1.90;;
74995;SDS011;63545;51.690;5.202;2023-06-14T12:45:34;7.23;;;2.10;;
74995;SDS011;63545;51.690;5.202;2023-06-14T12:47:59;4.47;;;1.80;;
74995;SDS011;63545;51.690;5.202;2023-06-14T12:50:25;4.83;;;1.80;;
74995;SDS011;63545;51.690;5.202;2023-06-14T12:52:51;4.38;;;2.05;;
74995;SDS011;63545;51.690;5.202;2023-06-14T12:55:16;3.77;;;2.10;;
74995;SDS011;63545;51.690;5.202;2023-06-14T12:57:43;3.80;;;2.10;;
74995;SDS011;63545;51.690;5.202;2023-06-14T13:00:08;2.53;;;2.10;;
74995;SDS011;63545;51.690;5.202;2023-06-14T13:02:34;2.97;;;1.90;;
74995;SDS011;63545;51.690;5.202;2023-06-14T13:05:00;6.50;;;2.30;;
74995;SDS011;63545;51.690;5.202;2023-06-14T13:07:27;4.00;;;2.03;;
74995;SDS011;63545;51.690;5.202;2023-06-14T13:09:52;2.93;;;2.10;;
74995;SDS011;63545;51.690;5.202;2023-06-14T13:12:17;6.50;;;2.13;;
74995;SDS011;63545;51.690;5.202;2023-06-14T13:14:43;3.10;;;1.83;;
74995;SDS011;63545;51.690;5.202;2023-06-14T13:17:09;4.70;;;2.00;;
74995;SDS011;63545;51.690;5.202;2023-06-14T13:19:34;4.30;;;1.83;;
74995;SDS011;63545;51.690;5.202;2023-06-14T13:22:00;8.68;;;2.10;;
74995;SDS011;63545;51.690;5.202;2023-06-14T13:24:25;3.47;;;1.80;;
74995;SDS011;63545;51.690;5.202;2023-06-14T13:26:51;5.40;;;1.90;;
74995;SDS011;63545;51.690;5.202;2023-06-14T13:29:16;2.90;;;2.10;;
74995;SDS011;63545;51.690;5.202;2023-06-14T13:31:42;3.33;;;1.60;;
74995;SDS011;63545;51.690;5.202;2023-06-14T13:34:07;2.90;;;1.90;;
74995;SDS011;63545;51.690;5.202;2023-06-14T13:36:32;5.33;;;1.90;;
74995;SDS011;63545;51.690;5.202;2023-06-14T13:38:58;5.30;;;2.00;;
74995;SDS011;63545;51.690;5.202;2023-06-14T13:41:25;7.65;;;2.20;;
74995;SDS011;63545;51.690;5.202;2023-06-14T13:43:56;5.43;;;1.90;;
74995;SDS011;63545;51.690;5.202;2023-06-14T13:46:22;3.17;;;1.92;;
74995;SDS011;63545;51.690;5.202;2023-06-14T13:48:47;4.27;;;2.13;;
74995;SDS011;63545;51.690;5.202;2023-06-14T13:51:12;4.90;;;1.90;;
74995;SDS011;63545;51.690;5.202;2023-06-14T13:53:38;2.87;;;2.00;;
74995;SDS011;63545;51.690;5.202;2023-06-14T13:56:04;4.75;;;1.80;;
74995;SDS011;63545;51.690;5.202;2023-06-14T13:58:29;3.97;;;2.10;;
74995;SDS011;63545;51.690;5.202;2023-06-14T14:00:54;3.07;;;1.90;;
74995;SDS011;63545;51.690;5.202;2023-06-14T14:03:19;3.30;;;2.00;;
74995;SDS011;63545;51.690;5.202;2023-06-14T14:05:45;4.27;;;1.97;;
74995;SDS011;63545;51.690;5.202;2023-06-14T14:08:10;2.97;;;1.87;;
74995;SDS011;63545;51.690;5.202;2023-06-14T14:10:36;6.10;;;1.77;;
74995;SDS011;63545;51.690;5.202;2023-06-14T14:13:01;3.70;;;1.90;;
74995;SDS011;63545;51.690;5.202;2023-06-14T14:15:26;6.43;;;1.87;;
74995;SDS011;63545;51.690;5.202;2023-06-14T14:17:52;4.47;;;2.10;;
74995;SDS011;63545;51.690;5.202;2023-06-14T14:20:19;6.47;;;1.90;;
74995;SDS011;63545;51.690;5.202;2023-06-14T14:22:44;4.30;;;1.85;;
74995;SDS011;63545;51.690;5.202;2023-06-14T14:25:10;5.00;;;1.63;;
74995;SDS011;63545;51.690;5.202;2023-06-14T14:27:38;3.10;;;1.85;;
74995;SDS011;63545;51.690;5.202;2023-06-14T14:30:04;5.43;;;1.70;;
74995;SDS011;63545;51.690;5.202;2023-06-14T14:32:30;4.00;;;1.80;;
74995;SDS011;63545;51.690;5.202;2023-06-14T14:34:55;4.47;;;1.90;;
74995;SDS011;63545;51.690;5.202;2023-06-14T14:37:21;3.77;;;1.83;;
74995;SDS011;63545;51.690;5.202;2023-06-14T14:39:46;2.67;;;1.63;;
74995;SDS011;63545;51.690;5.202;2023-06-14T14:42:11;3.03;;;1.70;;
74995;SDS011;63545;51.690;5.202;2023-06-14T14:44:38;3.17;;;1.60;;
74995;SDS011;63545;51.690;5.202;2023-06-14T14:47:03;3.65;;;1.83;;
74995;SDS011;63545;51.690;5.202;2023-06-14T14:49:30;2.60;;;1.60;;
74995;SDS011;63545;51.690;5.202;2023-06-14T14:51:58;4.13;;;1.70;;
74995;SDS011;63545;51.690;5.202;2023-06-14T14:54:23;3.40;;;1.80;;
74995;SDS011;63545;51.690;5.202;2023-06-14T14:56:50;3.97;;;1.50;;